KIPT

Williamsport Regional Airport

Williamsport, Pennsylvania, USA
KIPT 170315Z 1703/1724 31012G18KT P6SM SCT050 FM170600 29008KT P6SM BKN035
Issued Valid From Valid To
Jan-17 @ 03:15 UTC
(2 hours ago)
Jan-17 @ 03:00 UTC
(2 hours ago)
Jan-18 @ 00:00 UTC
(in 19 hours)
Jan-17 @ 03:00 to Jan-17 @ 06:00
KIPT 170315Z 1703/1724 31012G18KT P6SM SCT050
Wind Visibility Clouds
310° at 12 knots
 Gusting to 18 knots
Greater than 6 miles
  • Scattered at 5,000' AGL
From Jan-17 @ 06:00 to Jan-18 @ 00:00
FM170600 29008KT P6SM BKN035
Wind Visibility Clouds
290° at 8 knots Greater than 6 miles
  • Broken at 3,500' AGL
KIPT 170315Z 1703/1724 31012G18KT P6SM SCT050 FM170600 29008KT P6SM BKN035
Issued Jan-17 @ 03:15 UTC
(2 hours ago)
Valid From Jan-17 @ 03:00 UTC
(2 hours ago)
Valid To Jan-18 @ 00:00 UTC
(in 19 hours)
Jan-17 @ 03:00 - Jan-17 @ 06:00
Wind Visibility
310° at 12 knots
 Gusting to 18 knots
Greater than 6 miles
Clouds
  • Scattered at 5,000' AGL
From Jan-17 @ 06:00 - Jan-18 @ 00:00
Wind Visibility
290° at 8 knots Greater than 6 miles
Clouds
  • Broken at 3,500' AGL